Terminal Aerodrome Forecast
Issued by NWS

Home | Current Version | Previous Version | Text Only | Print | Product List | Glossary On
Versions: 1 2 3 4 5 6 7 8 9 10 11 12 13 14 15 16 17 18 19 20
000
FTAK31 PAJN 271123
TAFAYA
TAF
PAYA 271123Z 2712/2812 VRB03KT P6SM SCT080
     FM272000 19005KT P6SM BKN070
     FM280600 VRB03KT P6SM BKN050
      AMD LTD TO CLD VIS AND WIND 2801/2809=

USA.gov is the U.S. government's official web portal to all federal, state and local government web resources and services.